createdAt,value
2023-05-04T00:01:15.994Z,40.46
2023-05-04T00:03:44.006Z,40.45
2023-05-04T00:06:12.635Z,41.04
2023-05-04T00:08:40.445Z,41.29
2023-05-04T00:11:08.769Z,41.38
2023-05-04T00:13:37.223Z,41.11
2023-05-04T00:16:08.562Z,41.08
2023-05-04T00:18:38.690Z,40.96
2023-05-04T00:21:07.090Z,41.32
2023-05-04T00:23:35.163Z,40.98
2023-05-04T00:26:03.752Z,41.27
2023-05-04T00:28:31.733Z,41.23
2023-05-04T00:30:59.650Z,41.66
2023-05-04T00:33:29.080Z,41.72
2023-05-04T00:35:56.920Z,41.42
2023-05-04T00:38:24.821Z,41.55
2023-05-04T00:40:53.169Z,41.65
2023-05-04T00:43:20.958Z,42.03
2023-05-04T00:45:49.155Z,42.03
2023-05-04T00:48:17.783Z,41.51
2023-05-04T00:50:46.913Z,42.02
2023-05-04T00:53:15.149Z,41.50
2023-05-04T00:55:43.731Z,41.66
2023-05-04T00:58:11.555Z,42.25
2023-05-04T01:00:39.394Z,42.44
2023-05-04T01:03:08.043Z,42.27
2023-05-04T01:05:39.697Z,42.08
2023-05-04T01:11:11.527Z,42.81
2023-05-04T01:13:40.457Z,42.49
2023-05-04T01:16:08.546Z,43.25
2023-05-04T01:18:36.456Z,42.75
2023-05-04T01:21:04.969Z,43.05
2023-05-04T01:23:34.375Z,42.76
2023-05-04T01:26:08.819Z,43.28
2023-05-04T01:28:43.059Z,43.19
2023-05-04T01:31:13.991Z,43.29
2023-05-04T01:33:42.551Z,43.72
2023-05-04T01:36:10.517Z,43.30
2023-05-04T01:38:40.182Z,43.61
2023-05-04T01:41:07.778Z,42.74
2023-05-04T01:43:35.752Z,44.07
2023-05-04T01:46:04.201Z,43.51
2023-05-04T01:48:32.052Z,43.84
2023-05-04T01:50:59.826Z,44.39
2023-05-04T01:53:28.509Z,44.61
2023-05-04T01:55:57.650Z,43.96
2023-05-04T01:58:25.484Z,44.18
2023-05-04T02:00:53.268Z,44.65
2023-05-04T02:03:21.151Z,44.49
2023-05-04T02:05:48.943Z,44.90
2023-05-04T02:08:17.407Z,44.98
2023-05-04T02:10:45.246Z,45.66
2023-05-04T02:13:14.456Z,45.55
2023-05-04T02:15:42.992Z,45.49
2023-05-04T02:18:10.919Z,45.04
2023-05-04T02:20:38.859Z,45.50
2023-05-04T02:23:07.660Z,44.99
2023-05-04T02:25:35.448Z,46.00
2023-05-04T02:28:03.226Z,45.71
2023-05-04T02:30:32.928Z,45.86
2023-05-04T02:33:00.518Z,44.39
2023-05-04T02:35:28.361Z,45.67
2023-05-04T02:37:56.695Z,45.70
2023-05-04T02:40:24.478Z,45.62
2023-05-04T02:42:52.281Z,46.21
2023-05-04T02:45:20.700Z,45.90
2023-05-04T02:47:49.866Z,46.30
2023-05-04T02:50:17.692Z,46.38
2023-05-04T02:52:45.500Z,46.64
2023-05-04T02:55:13.328Z,46.07
2023-05-04T02:57:41.116Z,46.13
2023-05-04T03:00:10.428Z,46.30
2023-05-04T03:02:38.281Z,46.80
2023-05-04T03:05:08.085Z,47.17
2023-05-04T03:07:36.296Z,46.95
2023-05-04T03:10:04.562Z,47.18
2023-05-04T03:12:32.554Z,47.35
2023-05-04T03:15:00.991Z,46.88
2023-05-04T03:17:28.853Z,47.09
2023-05-04T03:19:56.749Z,47.15
2023-05-04T03:22:26.790Z,47.17
2023-05-04T03:24:54.733Z,47.00
2023-05-04T03:27:22.533Z,47.58
2023-05-04T03:29:50.858Z,47.32
2023-05-04T03:32:18.622Z,47.49
2023-05-04T03:34:46.819Z,47.28
2023-05-04T03:37:15.142Z,47.08
2023-05-04T03:39:44.290Z,46.97
2023-05-04T03:42:12.417Z,47.08
2023-05-04T03:44:41.348Z,47.92
2023-05-04T03:47:09.111Z,47.59
2023-05-04T03:49:37.102Z,47.48
2023-05-04T03:52:05.640Z,47.65
2023-05-04T03:54:33.398Z,47.95
2023-05-04T03:57:04.437Z,47.91
2023-05-04T03:59:32.931Z,48.19
2023-05-04T04:02:01.325Z,47.75
2023-05-04T04:04:29.160Z,48.28
2023-05-04T04:06:57.582Z,48.21
2023-05-04T04:09:25.451Z,47.90
2023-05-04T04:11:53.258Z,48.05
2023-05-04T04:14:22.839Z,48.04
2023-05-04T04:16:50.610Z,47.93
2023-05-04T04:19:18.389Z,47.97
2023-05-04T04:21:46.776Z,48.03
2023-05-04T04:24:14.716Z,48.06
2023-05-04T04:26:42.458Z,48.40
2023-05-04T04:29:10.617Z,50.46
2023-05-04T04:31:40.407Z,51.27
2023-05-04T04:34:08.272Z,51.05
2023-05-04T04:36:36.474Z,50.09
2023-05-04T04:39:05.921Z,49.28
2023-05-04T04:41:33.756Z,49.23
2023-05-04T04:44:02.905Z,47.26
2023-05-04T04:46:30.866Z,47.12
2023-05-04T04:49:00.023Z,46.55
2023-05-04T04:51:28.341Z,46.44
2023-05-04T04:53:56.149Z,46.74
2023-05-04T04:56:23.935Z,46.40
2023-05-04T04:58:52.286Z,46.30
2023-05-04T05:01:20.070Z,47.05
2023-05-04T05:03:49.154Z,46.67
2023-05-04T05:06:18.764Z,46.60
2023-05-04T05:08:46.743Z,47.15
2023-05-04T05:11:14.502Z,47.26
2023-05-04T05:13:42.851Z,47.40
2023-05-04T05:16:10.750Z,47.01
2023-05-04T05:18:38.548Z,47.54
2023-05-04T05:21:07.883Z,46.97
2023-05-04T05:23:37.044Z,47.26
2023-05-04T05:26:04.857Z,47.11
2023-05-04T05:28:33.449Z,47.51
2023-05-04T05:31:01.278Z,46.95
2023-05-04T05:33:29.075Z,47.66
2023-05-04T05:35:57.501Z,47.58
2023-05-04T05:38:26.776Z,47.67
2023-05-04T05:40:56.156Z,47.34
2023-05-04T05:43:24.640Z,47.64
2023-05-04T05:45:52.459Z,47.14
2023-05-04T05:48:20.282Z,47.05
2023-05-04T05:50:48.748Z,47.23
2023-05-04T05:53:16.545Z,47.28
2023-05-04T05:55:44.307Z,47.36
2023-05-04T05:58:14.414Z,47.64
2023-05-04T06:00:42.394Z,47.82
2023-05-04T06:03:10.461Z,47.38
2023-05-04T06:05:38.890Z,47.58
2023-05-04T06:08:06.759Z,47.65
2023-05-04T06:10:35.008Z,47.07
2023-05-04T06:13:03.462Z,47.69
2023-05-04T06:15:32.630Z,46.72
2023-05-04T06:18:00.505Z,46.91
2023-05-04T06:20:29.829Z,47.00
2023-05-04T06:22:58.280Z,46.68
2023-05-04T06:25:26.074Z,46.73
2023-05-04T06:27:54.375Z,46.42
2023-05-04T06:30:24.390Z,46.92
2023-05-04T06:32:53.611Z,46.68
2023-05-04T06:35:22.030Z,46.40
2023-05-04T06:40:22.905Z,45.76
2023-05-04T06:42:50.861Z,45.87
2023-05-04T06:45:19.180Z,45.47
2023-05-04T06:47:47.812Z,45.57
2023-05-04T06:50:17.235Z,45.72
2023-05-04T06:52:46.478Z,45.32
2023-05-04T06:55:15.056Z,45.21
2023-05-04T06:57:42.856Z,45.30
2023-05-04T07:00:11.874Z,44.62
2023-05-04T07:02:40.177Z,44.61
2023-05-04T07:05:08.750Z,44.66
2023-05-04T07:07:38.176Z,44.23
2023-05-04T07:10:07.343Z,44.45
2023-05-04T07:12:35.227Z,43.91
2023-05-04T07:15:03.426Z,43.99
2023-05-04T07:17:34.009Z,43.90
2023-05-04T07:20:03.358Z,43.55
2023-05-04T07:22:31.250Z,44.09
2023-05-04T07:25:01.147Z,43.05
2023-05-04T07:27:29.035Z,43.13
2023-05-04T07:29:57.199Z,42.81
2023-05-04T07:32:25.789Z,43.10
2023-05-04T07:34:53.628Z,42.65
2023-05-04T07:37:21.409Z,42.77
2023-05-04T07:39:49.815Z,42.81
2023-05-04T07:42:19.020Z,42.51
2023-05-04T07:44:47.041Z,41.93
2023-05-04T07:47:15.202Z,42.48
2023-05-04T07:49:43.013Z,42.43
2023-05-04T07:52:11.060Z,42.13
2023-05-04T07:54:39.383Z,42.48
2023-05-04T07:57:07.267Z,42.27
2023-05-04T07:59:36.690Z,42.26
2023-05-04T08:02:05.117Z,41.72
2023-05-04T08:04:33.048Z,41.09
2023-05-04T08:07:01.235Z,40.98
2023-05-04T08:09:29.723Z,41.35
2023-05-04T08:11:57.543Z,41.15
2023-05-04T08:14:25.312Z,40.65
2023-05-04T08:16:55.433Z,40.80
2023-05-04T08:19:23.703Z,40.21
2023-05-04T08:21:51.579Z,40.22
2023-05-04T08:24:20.189Z,40.41
2023-05-04T08:26:59.697Z,41.06
2023-05-04T08:29:37.776Z,41.03
2023-05-04T08:32:09.295Z,40.05
2023-05-04T08:34:39.270Z,39.27
2023-05-04T08:37:07.466Z,39.61
2023-05-04T08:39:35.650Z,38.64
2023-05-04T08:42:04.595Z,38.69
2023-05-04T08:44:32.758Z,38.81
2023-05-04T08:47:04.907Z,38.62
2023-05-04T08:49:34.329Z,39.05
2023-05-04T08:52:05.536Z,38.77
2023-05-04T08:54:35.221Z,39.20
2023-05-04T08:57:06.144Z,38.54
2023-05-04T08:59:34.668Z,37.92
2023-05-04T09:02:04.004Z,37.57
2023-05-04T09:04:32.510Z,38.73
2023-05-04T09:07:01.890Z,37.62
2023-05-04T09:09:31.410Z,37.85
2023-05-04T09:12:00.223Z,37.71
2023-05-04T09:14:34.509Z,37.94
2023-05-04T09:17:03.296Z,37.16
2023-05-04T09:19:34.656Z,37.87
2023-05-04T09:22:15.153Z,37.33
2023-05-04T09:24:42.938Z,36.95
2023-05-04T09:27:11.790Z,37.46
2023-05-04T09:29:41.250Z,37.60
2023-05-04T09:32:14.627Z,37.05
2023-05-04T09:34:52.801Z,37.43
2023-05-04T09:37:22.993Z,37.03
2023-05-04T09:39:55.876Z,37.04
2023-05-04T09:42:24.467Z,36.73
2023-05-04T09:45:03.873Z,36.42
2023-05-04T09:47:36.840Z,36.52
2023-05-04T09:50:19.902Z,36.84
2023-05-04T09:52:50.808Z,36.59
2023-05-04T09:55:20.354Z,36.30
2023-05-04T09:57:50.136Z,36.49
2023-05-04T10:00:20.056Z,36.79
2023-05-04T10:02:49.466Z,36.43
2023-05-04T10:05:18.739Z,37.01
2023-05-04T10:07:47.643Z,37.43
2023-05-04T10:10:16.954Z,36.58
2023-05-04T10:12:46.051Z,37.34
2023-05-04T10:15:16.373Z,37.22
2023-05-04T10:17:56.343Z,36.71
2023-05-04T10:20:40.409Z,36.32
2023-05-04T10:23:48.010Z,35.92
2023-05-04T10:26:54.153Z,36.50
2023-05-04T10:29:24.087Z,35.30
2023-05-04T10:31:53.478Z,35.81
2023-05-04T10:34:25.457Z,35.78
2023-05-04T10:36:53.582Z,35.77
2023-05-04T10:39:22.203Z,35.34
2023-05-04T10:42:05.323Z,35.86
2023-05-04T10:44:35.446Z,36.39
2023-05-04T10:47:06.251Z,34.73
2023-05-04T10:49:34.904Z,35.34
2023-05-04T10:52:11.061Z,34.60
2023-05-04T10:54:39.901Z,34.93
2023-05-04T10:57:10.238Z,34.85
2023-05-04T10:59:39.473Z,34.24
2023-05-04T11:02:09.657Z,34.43
2023-05-04T11:04:38.740Z,34.26
2023-05-04T11:07:09.019Z,34.48
2023-05-04T11:09:38.732Z,34.47
2023-05-04T11:12:11.311Z,34.63
2023-05-04T11:14:42.975Z,34.22
2023-05-04T11:17:27.725Z,33.98
2023-05-04T11:19:56.644Z,34.34
2023-05-04T11:22:25.163Z,33.69
2023-05-04T11:24:54.324Z,33.82
2023-05-04T11:27:28.154Z,33.73
2023-05-04T11:30:00.309Z,34.23
2023-05-04T11:32:39.013Z,33.63
2023-05-04T11:35:10.212Z,34.92
2023-05-04T11:37:42.582Z,34.34
2023-05-04T11:40:15.124Z,34.01
2023-05-04T11:42:45.782Z,33.35
2023-05-04T11:45:18.093Z,33.43
2023-05-04T11:47:47.950Z,31.90
2023-05-04T11:50:19.202Z,31.76
2023-05-04T11:52:48.245Z,32.41
2023-05-04T11:55:27.117Z,32.74
2023-05-04T11:58:00.636Z,31.60
2023-05-04T12:00:40.136Z,31.73
2023-05-04T12:03:09.573Z,32.27
2023-05-04T12:05:38.369Z,31.27
2023-05-04T12:08:07.446Z,31.61
2023-05-04T12:10:36.180Z,32.00
2023-05-04T12:13:16.645Z,32.09
2023-05-04T12:15:45.406Z,30.96
2023-05-04T12:18:22.252Z,31.60
2023-05-04T12:20:50.553Z,30.80
2023-05-04T12:23:18.453Z,31.14
2023-05-04T12:25:57.357Z,31.01
2023-05-04T12:28:31.502Z,30.44
2023-05-04T12:30:59.955Z,30.22
2023-05-04T12:33:28.177Z,29.76
2023-05-04T12:35:56.610Z,29.92
2023-05-04T12:38:25.482Z,30.54
2023-05-04T12:40:53.658Z,29.85
2023-05-04T12:43:23.210Z,29.82
2023-05-04T12:45:53.743Z,30.10
2023-05-04T12:48:22.272Z,30.10
2023-05-04T12:50:51.874Z,29.68
2023-05-04T12:53:22.162Z,30.19
2023-05-04T12:55:50.026Z,29.58
2023-05-04T12:58:18.199Z,29.47
2023-05-04T13:00:46.430Z,30.17
2023-05-04T13:03:19.326Z,29.90
2023-05-04T13:05:47.453Z,29.29
2023-05-04T13:08:15.221Z,29.56
2023-05-04T13:10:43.179Z,29.32
2023-05-04T13:13:10.989Z,29.20
2023-05-04T13:15:39.846Z,29.72
2023-05-04T13:18:08.038Z,29.44
2023-05-04T13:20:37.209Z,29.22
2023-05-04T13:23:04.996Z,29.69
2023-05-04T13:25:33.026Z,29.87
2023-05-04T13:28:00.779Z,29.59
2023-05-04T13:30:28.561Z,30.28
2023-05-04T13:32:56.888Z,29.39
2023-05-04T13:35:24.968Z,29.06
2023-05-04T13:37:54.112Z,29.43
2023-05-04T13:40:22.454Z,29.37
2023-05-04T13:42:50.249Z,29.25
2023-05-04T13:45:19.640Z,29.55
2023-05-04T13:47:48.152Z,29.17
2023-05-04T13:50:16.184Z,29.69
2023-05-04T13:52:43.953Z,29.44
2023-05-04T13:55:14.920Z,29.20
2023-05-04T13:57:42.681Z,28.90
2023-05-04T14:00:12.386Z,28.77
2023-05-04T14:02:40.889Z,28.89
2023-05-04T14:05:09.424Z,29.17
2023-05-04T14:07:37.641Z,29.69
2023-05-04T14:10:06.646Z,29.51
2023-05-04T14:12:35.905Z,29.77
2023-05-04T14:15:04.465Z,29.20
2023-05-04T14:17:32.969Z,28.74
2023-05-04T14:20:01.015Z,28.94
2023-05-04T14:22:29.235Z,28.29
2023-05-04T14:24:57.767Z,28.11
2023-05-04T14:27:27.471Z,28.48
2023-05-04T14:29:58.541Z,28.00
2023-05-04T14:32:26.467Z,27.91
2023-05-04T14:34:54.418Z,28.12
2023-05-04T14:37:22.694Z,28.03
2023-05-04T14:39:50.445Z,28.56
2023-05-04T14:42:18.233Z,27.78
2023-05-04T14:44:46.521Z,27.60
2023-05-04T14:47:15.659Z,27.47
2023-05-04T14:49:43.413Z,27.41
2023-05-04T14:52:11.834Z,27.66
2023-05-04T14:54:39.640Z,27.57
2023-05-04T14:57:09.034Z,27.53
2023-05-04T14:59:38.034Z,27.25
2023-05-04T15:02:08.207Z,27.38
2023-05-04T15:04:38.075Z,27.60
2023-05-04T15:07:06.028Z,28.10
2023-05-04T15:09:33.839Z,28.26
2023-05-04T15:12:02.389Z,28.07
2023-05-04T15:14:30.774Z,28.11
2023-05-04T15:16:58.615Z,27.91
2023-05-04T15:19:27.240Z,28.19
2023-05-04T15:21:56.527Z,28.35
2023-05-04T15:24:24.122Z,28.24
2023-05-04T15:26:52.516Z,28.52
2023-05-04T15:29:20.377Z,28.39
2023-05-04T15:31:48.223Z,28.27
2023-05-04T15:34:18.471Z,27.88
2023-05-04T15:36:46.751Z,27.61
2023-05-04T15:39:16.086Z,27.75
2023-05-04T15:41:43.992Z,28.19
2023-05-04T15:44:11.827Z,27.72
2023-05-04T15:46:39.673Z,27.88
2023-05-04T15:49:07.884Z,28.90
2023-05-04T15:51:35.694Z,28.78
2023-05-04T15:54:04.176Z,28.66
2023-05-04T15:56:33.953Z,28.62
2023-05-04T15:59:01.941Z,28.20
2023-05-04T16:01:29.875Z,28.55
2023-05-04T16:04:00.206Z,28.72
2023-05-04T16:06:28.700Z,28.51
2023-05-04T16:08:56.662Z,28.94
2023-05-04T16:11:24.971Z,28.85
2023-05-04T16:13:54.222Z,28.73
2023-05-04T16:16:21.790Z,29.02
2023-05-04T16:18:50.094Z,28.92
2023-05-04T16:21:17.958Z,28.76
2023-05-04T16:23:45.861Z,28.79
2023-05-04T16:26:15.771Z,28.97
2023-05-04T16:28:45.240Z,28.61
2023-05-04T16:31:14.537Z,28.95
2023-05-04T16:33:47.774Z,29.36
2023-05-04T16:36:15.960Z,29.54
2023-05-04T16:38:43.776Z,29.80
2023-05-04T16:41:11.786Z,29.95
2023-05-04T16:43:39.549Z,29.85
2023-05-04T16:46:07.371Z,30.02
2023-05-04T16:48:37.561Z,30.55
2023-05-04T16:51:06.066Z,31.53
2023-05-04T16:53:34.048Z,31.82
2023-05-04T16:56:02.026Z,31.90
2023-05-04T16:58:30.274Z,32.30
2023-05-04T17:00:58.427Z,32.72
2023-05-04T17:03:26.532Z,32.92
2023-05-04T17:05:55.796Z,33.20
2023-05-04T17:08:24.981Z,33.22
2023-05-04T17:10:52.967Z,32.89
2023-05-04T17:13:20.858Z,33.32
2023-05-04T17:15:48.774Z,33.86
2023-05-04T17:18:16.821Z,33.66
2023-05-04T17:20:44.601Z,33.90
2023-05-04T17:23:14.131Z,33.63
2023-05-04T17:25:42.197Z,34.21
2023-05-04T17:28:09.964Z,34.44
2023-05-04T17:30:38.101Z,34.44
2023-05-04T17:33:06.228Z,34.83
2023-05-04T17:35:34.296Z,35.09
2023-05-04T17:38:02.075Z,35.08
2023-05-04T17:40:31.470Z,35.21
2023-05-04T17:43:00.203Z,34.17
2023-05-04T17:45:28.068Z,35.04
2023-05-04T17:47:56.108Z,35.63
2023-05-04T17:50:24.491Z,35.54
2023-05-04T17:52:53.300Z,36.07
2023-05-04T17:55:21.416Z,36.18
2023-05-04T17:57:50.796Z,35.95
2023-05-04T18:00:18.549Z,35.56
2023-05-04T18:02:47.213Z,36.12
2023-05-04T18:05:15.065Z,37.01
2023-05-04T18:07:42.983Z,36.67
2023-05-04T18:10:11.982Z,36.68
2023-05-04T18:12:39.822Z,36.99
2023-05-04T18:15:10.758Z,37.31
2023-05-04T18:17:38.931Z,37.82
2023-05-04T18:20:09.032Z,37.77
2023-05-04T18:22:37.706Z,38.16
2023-05-04T18:25:07.006Z,38.10
2023-05-04T18:27:34.898Z,38.10
2023-05-04T18:30:03.374Z,38.33
2023-05-04T18:32:32.902Z,38.45
2023-05-04T18:35:01.428Z,38.45
2023-05-04T18:37:30.715Z,38.26
2023-05-04T18:39:58.786Z,38.74
2023-05-04T18:42:27.109Z,38.67
2023-05-04T18:44:56.135Z,38.63
2023-05-04T18:47:24.425Z,38.84
2023-05-04T18:49:56.182Z,39.22
2023-05-04T18:52:25.143Z,39.14
2023-05-04T18:54:52.910Z,39.45
2023-05-04T18:57:20.701Z,39.14
2023-05-04T18:59:48.681Z,39.86
2023-05-04T19:02:17.374Z,39.79
2023-05-04T19:04:46.805Z,40.32
2023-05-04T19:07:17.368Z,40.46
2023-05-04T19:09:46.348Z,40.48
2023-05-04T19:12:15.427Z,40.58
2023-05-04T19:14:44.386Z,40.23
2023-05-04T19:17:14.536Z,40.60
2023-05-04T19:19:42.344Z,40.45
2023-05-04T19:22:11.664Z,40.58
2023-05-04T19:24:41.224Z,40.82
2023-05-04T19:27:09.466Z,41.22
2023-05-04T19:29:37.512Z,40.97
2023-05-04T19:32:19.721Z,40.99
2023-05-04T19:34:51.738Z,41.38
2023-05-04T19:37:19.557Z,41.50
2023-05-04T19:39:48.712Z,41.71
2023-05-04T19:42:17.118Z,41.86
2023-05-04T19:44:44.967Z,42.12
2023-05-04T19:47:12.804Z,41.96
2023-05-04T19:49:41.066Z,42.17
2023-05-04T19:52:08.868Z,42.48
2023-05-04T19:54:38.292Z,42.88
2023-05-04T19:57:08.130Z,42.86
2023-05-04T19:59:35.995Z,42.78
2023-05-04T20:02:03.971Z,43.13
2023-05-04T20:04:32.550Z,42.94
2023-05-04T20:07:00.314Z,42.74
2023-05-04T20:09:28.944Z,42.87
2023-05-04T20:11:57.436Z,43.45
2023-05-04T20:14:26.615Z,43.56
2023-05-04T20:16:55.853Z,43.86
2023-05-04T20:19:24.201Z,44.24
2023-05-04T20:21:51.964Z,44.01
2023-05-04T20:24:19.770Z,44.66
2023-05-04T20:26:47.736Z,45.61
2023-05-04T20:29:15.494Z,45.63
2023-05-04T20:31:44.717Z,46.36
2023-05-04T20:34:12.712Z,45.88
2023-05-04T20:36:40.476Z,45.83
2023-05-04T20:39:08.236Z,45.94
2023-05-04T20:41:36.197Z,45.64
2023-05-04T20:44:04.358Z,45.72
2023-05-04T20:46:32.826Z,46.08
2023-05-04T20:49:02.991Z,46.37
2023-05-04T20:51:31.110Z,46.16
2023-05-04T20:53:58.921Z,46.62
2023-05-04T20:56:27.006Z,46.92
2023-05-04T20:58:55.215Z,47.05
2023-05-04T21:01:23.160Z,47.52
2023-05-04T21:03:51.323Z,47.13
2023-05-04T21:06:20.979Z,47.76
2023-05-04T21:08:48.772Z,48.11
2023-05-04T21:11:16.863Z,48.05
2023-05-04T21:13:44.645Z,48.16
2023-05-04T21:16:12.967Z,48.23
2023-05-04T21:18:41.088Z,48.39
2023-05-04T21:21:09.087Z,48.62
2023-05-04T21:23:38.327Z,48.90
2023-05-04T21:26:07.773Z,48.97
2023-05-04T21:28:35.399Z,47.19
2023-05-04T21:31:09.395Z,48.89
2023-05-04T21:33:37.396Z,49.09
2023-05-04T21:36:12.487Z,49.16
2023-05-04T21:38:42.654Z,49.50
2023-05-04T21:41:12.563Z,49.94
2023-05-04T21:43:40.412Z,50.48
2023-05-04T21:46:08.219Z,49.98
2023-05-04T21:48:36.993Z,49.83
2023-05-04T21:51:05.107Z,50.26
2023-05-04T21:53:34.047Z,50.28
2023-05-04T21:56:08.835Z,50.46
2023-05-04T21:58:37.265Z,50.87
2023-05-04T22:01:05.671Z,50.69
2023-05-04T22:03:34.230Z,50.78
2023-05-04T22:06:02.166Z,51.18
2023-05-04T22:08:30.068Z,51.17
2023-05-04T22:10:59.266Z,51.26
2023-05-04T22:13:28.524Z,51.10
2023-05-04T22:15:56.321Z,51.27
2023-05-04T22:18:24.754Z,51.16
2023-05-04T22:20:52.529Z,51.65
2023-05-04T22:23:20.421Z,51.33
2023-05-04T22:25:48.683Z,51.38
2023-05-04T22:28:16.465Z,51.76
2023-05-04T22:30:45.662Z,52.15
2023-05-04T22:33:13.556Z,52.45
2023-05-04T22:35:41.377Z,52.07
2023-05-04T22:38:09.458Z,50.53
2023-05-04T22:40:40.546Z,50.16
2023-05-04T22:43:08.523Z,49.89
2023-05-04T22:45:36.681Z,50.26
2023-05-04T22:48:06.343Z,50.21
2023-05-04T22:50:34.346Z,50.50
2023-05-04T22:53:02.157Z,50.54
2023-05-04T22:55:30.676Z,50.00
2023-05-04T22:57:58.504Z,50.07
2023-05-04T23:00:26.602Z,49.71
2023-05-04T23:02:55.073Z,49.93
2023-05-04T23:05:24.478Z,49.68
2023-05-04T23:07:52.555Z,49.60
2023-05-04T23:10:21.213Z,49.61
2023-05-04T23:12:49.022Z,49.54
2023-05-04T23:15:18.051Z,49.66
2023-05-04T23:17:46.480Z,49.86
2023-05-04T23:20:14.489Z,49.90
2023-05-04T23:22:43.672Z,49.89
2023-05-04T23:25:12.203Z,50.02
2023-05-04T23:30:09.205Z,49.91
2023-05-04T23:32:38.012Z,49.84
2023-05-04T23:35:07.494Z,50.17
2023-05-04T23:37:35.355Z,50.18
2023-05-04T23:40:05.787Z,50.40
2023-05-04T23:42:33.650Z,50.39
2023-05-04T23:45:01.457Z,50.43
2023-05-04T23:47:29.771Z,50.50
2023-05-04T23:49:57.580Z,50.49
2023-05-04T23:52:25.366Z,50.71
2023-05-04T23:54:55.104Z,50.66
2023-05-04T23:57:24.266Z,50.99
2023-05-04T23:59:53.728Z,50.99
